createdAt,value
2022-11-26T00:01:02.036Z,6.03
2022-11-26T00:03:49.464Z,6.55
2022-11-26T00:06:38.102Z,6.53
2022-11-26T00:09:25.229Z,6.35
2022-11-26T00:12:22.198Z,5.28
2022-11-26T00:15:21.195Z,5.82
2022-11-26T00:18:07.298Z,6.32
2022-11-26T00:21:00.148Z,6.72
2022-11-26T00:23:46.532Z,5.30
2022-11-26T00:26:32.437Z,5.45
2022-11-26T00:29:18.693Z,5.50
2022-11-26T00:32:11.956Z,6.00
2022-11-26T00:34:58.223Z,7.78
2022-11-26T00:37:47.379Z,6.65
2022-11-26T00:40:33.919Z,6.13
2022-11-26T00:43:20.110Z,6.25
2022-11-26T00:46:05.926Z,6.68
2022-11-26T00:48:52.180Z,5.63
2022-11-26T00:51:38.525Z,5.03
2022-11-26T00:54:24.592Z,5.55
2022-11-26T00:57:11.299Z,5.65
2022-11-26T00:59:57.500Z,5.28
2022-11-26T01:02:43.398Z,5.00
2022-11-26T01:05:33.767Z,4.90
2022-11-26T01:08:30.058Z,5.63
2022-11-26T01:11:21.210Z,5.30
2022-11-26T01:14:07.308Z,5.43
2022-11-26T01:16:55.696Z,6.80
2022-11-26T01:19:41.496Z,4.57
2022-11-26T01:22:27.491Z,4.80
2022-11-26T01:25:13.527Z,4.50
2022-11-26T01:27:59.466Z,4.13
2022-11-26T01:30:46.471Z,3.97
2022-11-26T01:33:32.659Z,4.13
2022-11-26T01:36:27.734Z,4.22
2022-11-26T01:39:19.033Z,4.03
2022-11-26T01:42:35.055Z,3.78
2022-11-26T01:45:23.030Z,3.70
2022-11-26T01:48:26.789Z,4.00
2022-11-26T01:51:13.538Z,3.35
2022-11-26T01:54:00.284Z,3.63
2022-11-26T01:56:52.449Z,3.55
2022-11-26T01:59:41.175Z,4.47
2022-11-26T02:02:28.960Z,3.60
2022-11-26T02:05:24.548Z,4.07
2022-11-26T02:08:12.114Z,3.58
2022-11-26T02:10:58.431Z,3.60
2022-11-26T02:13:45.866Z,3.47
2022-11-26T02:16:46.364Z,3.92
2022-11-26T02:19:56.650Z,4.03
2022-11-26T02:22:57.890Z,3.95
2022-11-26T02:25:58.912Z,3.03
2022-11-26T02:29:03.195Z,3.60
2022-11-26T02:32:24.931Z,4.20
2022-11-26T02:35:18.660Z,3.67
2022-11-26T02:38:16.104Z,3.40
2022-11-26T02:41:02.364Z,3.60
2022-11-26T02:43:48.409Z,3.50
2022-11-26T02:46:34.581Z,4.00
2022-11-26T02:49:21.999Z,3.53
2022-11-26T02:52:08.362Z,3.50
2022-11-26T02:54:56.001Z,3.67
2022-11-26T02:57:46.965Z,3.40
2022-11-26T03:00:34.893Z,3.50
2022-11-26T03:03:26.165Z,3.50
2022-11-26T03:06:13.696Z,2.80
2022-11-26T03:08:59.611Z,3.85
2022-11-26T03:11:45.744Z,3.38
2022-11-26T03:14:31.713Z,3.47
2022-11-26T03:17:18.338Z,3.58
2022-11-26T03:20:05.486Z,3.50
2022-11-26T03:22:51.279Z,3.05
2022-11-26T03:25:37.499Z,3.05
2022-11-26T03:28:24.422Z,2.90
2022-11-26T03:31:10.492Z,3.35
2022-11-26T03:33:56.562Z,3.67
2022-11-26T03:36:43.131Z,3.63
2022-11-26T03:39:29.071Z,3.83
2022-11-26T03:42:14.968Z,3.65
2022-11-26T03:45:01.215Z,3.53
2022-11-26T03:47:47.200Z,3.45
2022-11-26T03:50:33.227Z,3.92
2022-11-26T03:53:19.179Z,4.03
2022-11-26T03:56:05.537Z,3.72
2022-11-26T03:58:51.602Z,3.58
2022-11-26T04:01:37.642Z,3.65
2022-11-26T04:04:23.479Z,3.53
2022-11-26T04:07:09.647Z,3.58
2022-11-26T04:09:55.333Z,3.67
2022-11-26T04:12:41.360Z,3.25
2022-11-26T04:15:27.412Z,3.65
2022-11-26T04:18:13.281Z,3.40
2022-11-26T04:20:59.282Z,3.30
2022-11-26T04:23:45.178Z,3.58
2022-11-26T04:26:31.195Z,3.53
2022-11-26T04:29:17.063Z,3.85
2022-11-26T04:32:04.222Z,3.85
2022-11-26T04:34:50.275Z,4.07
2022-11-26T04:37:36.371Z,4.32
2022-11-26T04:40:22.335Z,8.88
2022-11-26T04:43:08.463Z,14.25
2022-11-26T04:45:54.516Z,11.05
2022-11-26T04:48:40.460Z,6.40
2022-11-26T04:51:26.538Z,5.30
2022-11-26T04:54:13.354Z,5.00
2022-11-26T04:56:59.456Z,4.88
2022-11-26T04:59:45.660Z,4.38
2022-11-26T05:02:31.834Z,4.55
2022-11-26T05:05:17.837Z,3.90
2022-11-26T05:08:04.267Z,4.43
2022-11-26T05:10:54.456Z,4.47
2022-11-26T05:13:40.360Z,4.20
2022-11-26T05:16:26.493Z,4.60
2022-11-26T05:19:12.292Z,4.18
2022-11-26T05:21:58.156Z,4.90
2022-11-26T05:24:44.132Z,4.32
2022-11-26T05:27:30.067Z,3.85
2022-11-26T05:30:16.392Z,4.15
2022-11-26T05:33:02.515Z,4.68
2022-11-26T05:35:48.535Z,4.95
2022-11-26T05:38:34.647Z,5.07
2022-11-26T05:41:20.755Z,5.65
2022-11-26T05:44:07.198Z,5.25
2022-11-26T05:46:52.934Z,4.93
2022-11-26T05:49:38.800Z,5.22
2022-11-26T05:52:24.834Z,5.80
2022-11-26T05:55:10.719Z,5.30
2022-11-26T05:57:56.587Z,4.95
2022-11-26T06:00:42.599Z,5.35
2022-11-26T06:03:28.649Z,5.20
2022-11-26T06:06:14.761Z,5.88
2022-11-26T06:09:00.806Z,6.13
2022-11-26T06:11:49.448Z,6.43
2022-11-26T06:14:37.214Z,6.78
2022-11-26T06:17:26.362Z,8.15
2022-11-26T06:20:13.218Z,8.38
2022-11-26T06:22:59.118Z,7.30
2022-11-26T06:25:45.163Z,6.78
2022-11-26T06:28:31.076Z,6.88
2022-11-26T06:31:17.105Z,7.43
2022-11-26T06:34:03.087Z,6.80
2022-11-26T06:36:48.975Z,6.80
2022-11-26T06:39:36.265Z,7.53
2022-11-26T06:42:22.455Z,6.80
2022-11-26T06:45:08.999Z,6.68
2022-11-26T06:47:55.507Z,7.00
2022-11-26T06:50:41.460Z,7.20
2022-11-26T06:53:27.259Z,7.32
2022-11-26T06:56:18.735Z,8.15
2022-11-26T06:59:05.378Z,7.80
2022-11-26T07:01:51.752Z,8.07
2022-11-26T07:04:38.138Z,8.02
2022-11-26T07:07:24.346Z,7.55
2022-11-26T07:10:10.433Z,9.27
2022-11-26T07:12:56.610Z,7.82
2022-11-26T07:15:42.401Z,8.07
2022-11-26T07:18:28.351Z,7.57
2022-11-26T07:21:14.408Z,6.75
2022-11-26T07:24:00.418Z,7.60
2022-11-26T07:26:46.349Z,7.78
2022-11-26T07:29:32.639Z,7.95
2022-11-26T07:32:18.748Z,7.63
2022-11-26T07:35:05.592Z,7.55
2022-11-26T07:37:51.420Z,8.00
2022-11-26T07:40:37.352Z,8.48
2022-11-26T07:43:23.455Z,7.10
2022-11-26T07:46:13.941Z,6.78
2022-11-26T07:48:59.928Z,8.45
2022-11-26T07:51:45.936Z,9.50
2022-11-26T07:54:32.312Z,10.20
2022-11-26T07:57:18.441Z,9.27
2022-11-26T08:00:05.075Z,9.60
2022-11-26T08:02:58.064Z,8.30
2022-11-26T08:05:45.213Z,8.68
2022-11-26T08:08:31.127Z,7.72
2022-11-26T08:11:22.557Z,8.45
2022-11-26T08:14:12.785Z,7.57
2022-11-26T08:16:59.151Z,6.63
2022-11-26T08:19:45.594Z,7.25
2022-11-26T08:22:31.551Z,7.72
2022-11-26T08:25:17.801Z,7.13
2022-11-26T08:28:04.095Z,7.57
2022-11-26T08:30:50.220Z,6.90
2022-11-26T08:33:36.515Z,7.45
2022-11-26T08:36:22.945Z,7.40
2022-11-26T08:39:15.359Z,7.25
2022-11-26T08:42:01.656Z,7.68
2022-11-26T08:44:48.145Z,7.38
2022-11-26T08:47:33.985Z,7.78
2022-11-26T08:50:20.873Z,8.13
2022-11-26T08:53:07.089Z,8.32
2022-11-26T08:56:00.171Z,7.00
2022-11-26T08:58:49.007Z,7.90
2022-11-26T09:01:35.471Z,8.70
2022-11-26T09:04:21.588Z,6.90
2022-11-26T09:07:08.013Z,6.22
2022-11-26T09:09:53.772Z,5.95
2022-11-26T09:12:39.720Z,6.20
2022-11-26T09:15:25.751Z,6.53
2022-11-26T09:18:12.135Z,5.93
2022-11-26T09:21:02.783Z,7.07
2022-11-26T09:23:49.243Z,5.18
2022-11-26T09:26:35.542Z,6.10
2022-11-26T09:29:23.124Z,7.72
2022-11-26T09:32:24.393Z,15.30
2022-11-26T09:37:57.980Z,21.48
2022-11-26T09:41:16.421Z,22.60
2022-11-26T09:44:41.663Z,16.58
2022-11-26T09:47:32.054Z,9.20
2022-11-26T09:50:26.307Z,9.35
2022-11-26T09:53:21.634Z,13.65
2022-11-26T09:56:13.867Z,20.92
2022-11-26T09:59:03.802Z,20.70
2022-11-26T10:01:49.958Z,20.48
2022-11-26T10:04:37.703Z,18.42
2022-11-26T10:07:52.454Z,21.35
2022-11-26T10:10:49.393Z,19.52
2022-11-26T10:13:50.592Z,19.30
2022-11-26T10:16:56.953Z,18.58
2022-11-26T10:19:52.010Z,17.40
2022-11-26T10:22:57.161Z,18.77
2022-11-26T10:25:50.071Z,17.42
2022-11-26T10:28:41.087Z,16.92
2022-11-26T10:31:32.068Z,16.15
2022-11-26T10:34:39.467Z,23.15
2022-11-26T10:37:27.416Z,14.25
2022-11-26T10:40:26.563Z,15.38
2022-11-26T10:43:21.892Z,14.88
2022-11-26T10:46:07.716Z,13.55
2022-11-26T10:48:53.568Z,12.73
2022-11-26T10:51:39.971Z,13.60
2022-11-26T10:54:34.854Z,12.30
2022-11-26T10:57:21.323Z,13.80
2022-11-26T11:00:15.479Z,12.27
2022-11-26T11:03:02.580Z,12.05
2022-11-26T11:05:48.660Z,12.10
2022-11-26T11:08:34.815Z,11.55
2022-11-26T11:11:38.761Z,13.07
2022-11-26T11:14:29.117Z,15.00
2022-11-26T11:17:25.570Z,14.27
2022-11-26T11:20:14.789Z,15.95
2022-11-26T11:23:31.113Z,14.85
2022-11-26T11:26:40.710Z,16.67
2022-11-26T11:29:31.467Z,17.10
2022-11-26T11:32:38.130Z,15.73
2022-11-26T11:35:27.149Z,13.48
2022-11-26T11:38:24.944Z,11.20
2022-11-26T11:41:23.420Z,4.55
2022-11-26T11:44:20.607Z,4.20
2022-11-26T11:47:11.100Z,3.97
2022-11-26T11:50:06.275Z,3.75
2022-11-26T11:53:10.990Z,4.10
2022-11-26T11:56:09.252Z,3.97
2022-11-26T11:59:07.482Z,3.95
2022-11-26T12:02:20.990Z,4.03
2022-11-26T12:05:23.140Z,4.35
2022-11-26T12:08:15.811Z,3.90
2022-11-26T12:11:22.303Z,4.22
2022-11-26T12:14:14.808Z,4.18
2022-11-26T12:17:27.799Z,3.70
2022-11-26T12:21:07.488Z,3.38
2022-11-26T12:23:58.617Z,4.10
2022-11-26T12:27:08.207Z,3.50
2022-11-26T12:30:08.613Z,3.95
2022-11-26T12:32:55.827Z,3.55
2022-11-26T12:35:54.076Z,3.20
2022-11-26T12:38:46.751Z,3.40
2022-11-26T12:41:35.091Z,5.00
2022-11-26T12:44:37.334Z,4.85
2022-11-26T12:47:37.211Z,4.15
2022-11-26T12:50:35.079Z,4.40
2022-11-26T12:53:47.200Z,5.07
2022-11-26T12:56:38.540Z,4.63
2022-11-26T12:59:24.653Z,4.05
2022-11-26T13:02:35.606Z,5.00
2022-11-26T13:06:00.725Z,4.88
2022-11-26T13:08:55.666Z,5.00
2022-11-26T13:11:47.712Z,4.75
2022-11-26T13:14:56.782Z,4.95
2022-11-26T13:17:44.810Z,5.70
2022-11-26T13:20:52.555Z,5.10
2022-11-26T13:23:51.651Z,5.50
2022-11-26T13:26:46.075Z,5.55
2022-11-26T13:29:47.128Z,5.07
2022-11-26T13:32:42.037Z,5.88
2022-11-26T13:35:34.274Z,6.07
2022-11-26T13:38:26.019Z,5.65
2022-11-26T13:41:33.538Z,5.13
2022-11-26T13:44:34.825Z,5.47
2022-11-26T13:47:35.850Z,5.95
2022-11-26T13:50:29.919Z,5.70
2022-11-26T13:53:25.078Z,5.80
2022-11-26T13:56:13.506Z,5.50
2022-11-26T13:59:02.824Z,4.45
2022-11-26T14:01:49.202Z,4.72
2022-11-26T14:04:35.397Z,4.43
2022-11-26T14:07:21.652Z,5.82
2022-11-26T14:10:30.735Z,4.65
2022-11-26T14:13:17.348Z,5.55
2022-11-26T14:16:07.121Z,5.43
2022-11-26T14:18:56.666Z,4.53
2022-11-26T14:21:58.222Z,4.57
2022-11-26T14:24:50.089Z,4.85
2022-11-26T14:27:50.092Z,3.87
2022-11-26T14:30:36.307Z,3.90
2022-11-26T14:33:27.474Z,3.97
2022-11-26T14:36:25.071Z,4.15
2022-11-26T14:39:16.833Z,4.30
2022-11-26T14:42:06.285Z,4.00
2022-11-26T14:45:15.620Z,4.50
2022-11-26T14:48:02.378Z,4.90
2022-11-26T14:50:48.632Z,4.40
2022-11-26T14:53:34.981Z,5.10
2022-11-26T14:56:23.060Z,4.88
2022-11-26T14:59:14.313Z,4.72
2022-11-26T15:02:00.178Z,3.30
2022-11-26T15:04:46.151Z,4.05
2022-11-26T15:07:32.182Z,4.68
2022-11-26T15:10:20.866Z,3.90
2022-11-26T15:13:13.073Z,5.03
2022-11-26T15:16:04.304Z,5.75
2022-11-26T15:18:52.611Z,4.30
2022-11-26T15:21:40.743Z,5.28
2022-11-26T15:24:26.932Z,4.78
2022-11-26T15:27:36.623Z,4.70
2022-11-26T15:30:24.442Z,4.50
2022-11-26T15:33:13.797Z,4.20
2022-11-26T15:36:00.298Z,4.20
2022-11-26T15:39:06.447Z,4.60
2022-11-26T15:41:52.882Z,4.20
2022-11-26T15:44:42.534Z,4.78
2022-11-26T15:47:29.229Z,5.45
2022-11-26T15:50:31.598Z,9.02
2022-11-26T15:53:20.111Z,7.23
2022-11-26T15:56:06.715Z,6.10
2022-11-26T15:58:55.894Z,5.35
2022-11-26T16:01:44.951Z,6.93
2022-11-26T16:04:38.171Z,6.40
2022-11-26T16:07:27.681Z,6.85
2022-11-26T16:10:16.587Z,7.53
2022-11-26T16:13:11.755Z,4.53
2022-11-26T16:16:03.763Z,7.68
2022-11-26T16:18:59.768Z,5.47
2022-11-26T16:21:51.231Z,7.13
2022-11-26T16:24:43.711Z,6.13
2022-11-26T16:27:31.642Z,4.65
2022-11-26T16:30:17.979Z,5.30
2022-11-26T16:33:04.537Z,5.65
2022-11-26T16:35:50.874Z,5.03
2022-11-26T16:38:36.733Z,4.70
2022-11-26T16:41:23.437Z,4.78
2022-11-26T16:44:09.805Z,4.53
2022-11-26T16:46:55.888Z,4.20
2022-11-26T16:49:41.999Z,4.15
2022-11-26T16:52:28.172Z,4.75
2022-11-26T16:55:16.078Z,4.88
2022-11-26T16:58:02.404Z,3.75
2022-11-26T17:00:51.186Z,4.47
2022-11-26T17:03:37.175Z,4.47
2022-11-26T17:06:24.870Z,5.20
2022-11-26T17:09:20.632Z,4.32
2022-11-26T17:12:17.807Z,3.92
2022-11-26T17:15:07.659Z,5.28
2022-11-26T17:18:06.868Z,4.45
2022-11-26T17:20:54.137Z,4.85
2022-11-26T17:23:42.802Z,4.90
2022-11-26T17:26:29.067Z,4.32
2022-11-26T17:29:15.159Z,4.20
2022-11-26T17:32:01.206Z,4.53
2022-11-26T17:34:48.147Z,4.28
2022-11-26T17:37:34.684Z,3.22
2022-11-26T17:40:22.045Z,3.42
2022-11-26T17:43:07.885Z,3.13
2022-11-26T17:45:54.211Z,3.63
2022-11-26T17:48:40.055Z,3.65
2022-11-26T17:51:25.872Z,3.22
2022-11-26T17:54:11.777Z,3.40
2022-11-26T17:56:57.726Z,2.60
2022-11-26T17:59:44.265Z,2.85
2022-11-26T18:02:30.553Z,2.88
2022-11-26T18:05:16.684Z,5.95
2022-11-26T18:08:02.940Z,3.17
2022-11-26T18:10:49.027Z,3.15
2022-11-26T18:13:34.999Z,3.13
2022-11-26T18:16:21.540Z,2.60
2022-11-26T18:19:09.030Z,2.30
2022-11-26T18:21:55.147Z,2.42
2022-11-26T18:24:41.180Z,2.55
2022-11-26T18:27:28.796Z,2.40
2022-11-26T18:30:15.539Z,2.20
2022-11-26T18:33:01.883Z,19.92
2022-11-26T18:35:50.833Z,4.65
2022-11-26T18:38:38.094Z,3.28
2022-11-26T18:41:24.317Z,2.83
2022-11-26T18:44:11.083Z,2.13
2022-11-26T18:46:57.156Z,2.53
2022-11-26T18:49:46.297Z,2.33
2022-11-26T18:52:33.905Z,2.25
2022-11-26T18:55:19.817Z,2.70
2022-11-26T18:58:08.154Z,2.35
2022-11-26T19:00:58.577Z,3.00
2022-11-26T19:03:44.552Z,3.65
2022-11-26T19:06:31.883Z,2.95
2022-11-26T19:09:19.839Z,3.13
2022-11-26T19:12:06.275Z,3.30
2022-11-26T19:14:52.047Z,3.90
2022-11-26T19:17:38.092Z,2.90
2022-11-26T19:20:24.349Z,2.90
2022-11-26T19:23:10.275Z,2.97
2022-11-26T19:25:56.491Z,3.20
2022-11-26T19:28:42.950Z,3.22
2022-11-26T19:31:30.618Z,4.32
2022-11-26T19:34:17.307Z,3.83
2022-11-26T19:37:03.443Z,4.82
2022-11-26T19:39:49.267Z,4.20
2022-11-26T19:42:35.348Z,3.47
2022-11-26T19:45:21.236Z,3.42
2022-11-26T19:48:07.053Z,3.15
2022-11-26T19:50:56.470Z,3.17
2022-11-26T19:53:42.939Z,3.30
2022-11-26T19:56:30.943Z,3.35
2022-11-26T19:59:17.162Z,3.30
2022-11-26T20:02:03.579Z,3.25
2022-11-26T20:04:49.503Z,3.30
2022-11-26T20:07:35.947Z,3.05
2022-11-26T20:10:21.969Z,3.50
2022-11-26T20:13:08.593Z,3.15
2022-11-26T20:15:55.250Z,3.30
2022-11-26T20:18:41.405Z,3.58
2022-11-26T20:21:29.196Z,3.65
2022-11-26T20:24:17.090Z,4.00
2022-11-26T20:27:03.067Z,4.28
2022-11-26T20:29:49.443Z,3.95
2022-11-26T20:32:36.877Z,5.28
2022-11-26T20:35:23.330Z,4.07
2022-11-26T20:38:09.941Z,4.35
2022-11-26T20:40:56.311Z,4.57
2022-11-26T20:43:42.714Z,4.57
2022-11-26T20:46:28.993Z,3.72
2022-11-26T20:49:16.194Z,3.92
2022-11-26T20:52:02.329Z,4.15
2022-11-26T20:54:52.262Z,4.68
2022-11-26T20:57:39.651Z,4.65
2022-11-26T21:00:27.682Z,4.68
2022-11-26T21:03:14.427Z,4.47
2022-11-26T21:06:04.031Z,4.70
2022-11-26T21:08:50.206Z,3.85
2022-11-26T21:11:37.533Z,4.07
2022-11-26T21:14:23.550Z,4.03
2022-11-26T21:17:09.937Z,4.13
2022-11-26T21:19:56.356Z,4.22
2022-11-26T21:22:42.690Z,4.25
2022-11-26T21:25:28.845Z,4.13
2022-11-26T21:28:15.117Z,4.05
2022-11-26T21:31:21.792Z,4.18
2022-11-26T21:34:11.182Z,4.93
2022-11-26T21:36:56.988Z,4.10
2022-11-26T21:39:43.003Z,4.70
2022-11-26T21:42:33.134Z,4.15
2022-11-26T21:45:19.103Z,4.20
2022-11-26T21:48:05.536Z,4.07
2022-11-26T21:50:51.731Z,4.47
2022-11-26T21:53:37.853Z,4.35
2022-11-26T21:56:26.386Z,5.03
2022-11-26T21:59:12.475Z,4.32
2022-11-26T22:01:58.509Z,4.80
2022-11-26T22:04:44.369Z,4.85
2022-11-26T22:07:30.712Z,5.18
2022-11-26T22:10:17.213Z,5.10
2022-11-26T22:13:02.968Z,4.68
2022-11-26T22:15:49.100Z,5.53
2022-11-26T22:18:37.203Z,4.75
2022-11-26T22:21:25.904Z,4.80
2022-11-26T22:24:14.840Z,5.03
2022-11-26T22:27:00.772Z,4.93
2022-11-26T22:29:46.810Z,5.50
2022-11-26T22:32:32.749Z,4.90
2022-11-26T22:35:18.681Z,5.53
2022-11-26T22:38:04.657Z,5.18
2022-11-26T22:40:50.672Z,6.15
2022-11-26T22:43:36.981Z,5.05
2022-11-26T22:46:23.746Z,6.10
2022-11-26T22:49:15.629Z,5.70
2022-11-26T22:52:01.905Z,5.40
2022-11-26T22:54:48.209Z,5.90
2022-11-26T22:57:34.355Z,5.93
2022-11-26T23:00:47.008Z,5.68
2022-11-26T23:03:35.401Z,5.65
2022-11-26T23:06:23.643Z,5.50
2022-11-26T23:09:11.121Z,5.65
2022-11-26T23:11:57.369Z,5.88
2022-11-26T23:14:43.452Z,5.80
2022-11-26T23:17:29.364Z,6.30
2022-11-26T23:20:15.628Z,7.15
2022-11-26T23:23:01.407Z,6.43
2022-11-26T23:25:47.474Z,6.25
2022-11-26T23:28:35.180Z,6.53
2022-11-26T23:31:26.671Z,6.15
2022-11-26T23:34:13.093Z,5.60
2022-11-26T23:36:59.387Z,6.40
2022-11-26T23:39:45.632Z,5.38
2022-11-26T23:42:31.575Z,6.68
2022-11-26T23:45:17.675Z,6.15
2022-11-26T23:48:03.692Z,6.40
2022-11-26T23:50:49.588Z,7.03
2022-11-26T23:53:37.349Z,6.85
2022-11-26T23:56:29.821Z,6.65
2022-11-26T23:59:15.755Z,5.90
